Time;durP1;ratioP1;P1;durP2;ratioP2;P2;SDS_P1;SDS_P2;PMS_P1;PMS_P2;Temp;Humidity;BMP_temperature;BMP_pressure;BME280_temperature;BME280_humidity;BME280_pressure;Samples;Min_cycle;Max_cycle;Signal;HPM_P1;HPM_P2
2022/06/19 00:02:16;;;;;;;6.82;1.88;;;25.20;93.50;;;;;;5047683;28;20749;-34
2022/06/19 00:04:46;;;;;;;4.15;2.10;;;25.20;93.70;;;;;;5035497;28;20216;-34
2022/06/19 00:07:18;;;;;;;7.78;1.85;;;25.20;93.90;;;;;;5012139;28;20231;-34
2022/06/19 00:09:54;;;;;;;3.75;1.70;;;25.20;94.20;;;;;;5028519;28;20209;-36
2022/06/19 00:12:24;;;;;;;2.47;1.40;;;25.20;93.80;;;;;;5024698;28;20200;-37
2022/06/19 00:14:51;;;;;;;5.35;1.90;;;25.10;93.90;;;;;;5028125;28;20215;-37
2022/06/19 00:17:18;;;;;;;5.72;1.90;;;25.10;93.90;;;;;;5027340;28;20687;-37
2022/06/19 00:19:46;;;;;;;4.03;1.95;;;25.10;94.10;;;;;;5028340;28;20223;-37
2022/06/19 00:22:13;;;;;;;5.55;1.88;;;25.00;94.00;;;;;;5027285;28;20252;-37
2022/06/19 00:24:41;;;;;;;4.90;1.70;;;25.00;93.80;;;;;;5027969;28;20197;-37
2022/06/19 00:27:08;;;;;;;4.75;1.67;;;25.00;93.80;;;;;;5026077;28;20244;-37
2022/06/19 00:29:35;;;;;;;5.30;2.17;;;24.90;93.80;;;;;;5027954;28;20255;-37
2022/06/19 00:32:06;;;;;;;6.07;2.50;;;24.90;94.00;;;;;;5026388;28;20217;-37
2022/06/19 00:34:35;;;;;;;4.40;1.42;;;24.80;93.70;;;;;;5026926;28;20189;-37
2022/06/19 00:37:03;;;;;;;7.63;2.13;;;24.80;93.80;;;;;;5026318;28;20256;-37
2022/06/19 00:39:32;;;;;;;6.20;1.90;;;24.70;93.80;;;;;;5027834;28;20212;-37
2022/06/19 00:41:59;;;;;;;5.07;1.75;;;24.60;94.50;;;;;;5027690;28;20285;-37
2022/06/19 00:44:29;;;;;;;4.28;1.75;;;24.60;94.10;;;;;;5028087;28;20690;-37
2022/06/19 00:47:06;;;;;;;6.57;2.05;;;24.50;93.90;;;;;;5058448;28;20495;-38
2022/06/19 00:49:57;;;;;;;9.02;1.80;;;24.50;93.70;;;;;;5026767;28;20223;-37
2022/06/19 00:52:38;;;;;;;7.03;1.73;;;24.40;93.70;;;;;;5026194;28;20567;-37
2022/06/19 00:55:13;;;;;;;3.28;1.70;;;24.40;94.10;;;;;;5028112;28;20229;-37
2022/06/19 00:57:50;;;;;;;3.47;1.50;;;24.20;93.80;;;;;;5024770;28;20236;-37
2022/06/19 01:00:24;;;;;;;4.78;1.75;;;24.20;93.50;;;;;;5032795;28;20655;-37
2022/06/19 01:02:58;;;;;;;3.92;1.40;;;24.10;93.70;;;;;;5026751;28;20201;-37
2022/06/19 01:05:29;;;;;;;3.53;1.70;;;24.00;93.50;;;;;;5023898;28;20577;-37
2022/06/19 01:08:00;;;;;;;6.13;1.50;;;23.90;93.60;;;;;;5026639;28;20700;-34
2022/06/19 01:10:37;;;;;;;6.63;1.98;;;23.90;93.50;;;;;;5027258;28;20200;-34
2022/06/19 01:13:04;;;;;;;6.82;2.10;;;23.90;93.60;;;;;;5027212;28;20201;-34
2022/06/19 01:15:38;;;;;;;9.20;2.00;;;23.70;93.50;;;;;;5027376;28;20189;-33
2022/06/19 01:18:08;;;;;;;4.78;1.92;;;23.60;93.50;;;;;;5026176;28;20255;-34
2022/06/19 01:20:42;;;;;;;10.77;2.40;;;23.40;93.20;;;;;;5026985;28;20202;-34
2022/06/19 01:23:43;;;;;;;7.47;2.47;;;23.30;93.80;;;;;;5023729;28;20621;-34
2022/06/19 01:26:14;;;;;;;7.85;1.90;;;23.00;94.00;;;;;;5031160;28;20578;-34
2022/06/19 01:28:54;;;;;;;7.97;2.05;;;22.80;92.90;;;;;;5045815;28;20274;-34
2022/06/19 01:31:33;;;;;;;8.40;2.10;;;22.60;93.00;;;;;;5029514;28;20197;-34
2022/06/19 01:37:20;;;;;;;5.82;1.70;;;22.30;92.70;;;;;;5012552;28;20207;-33
2022/06/19 01:40:26;;;;;;;8.98;1.80;;;22.10;92.90;;;;;;5031381;28;20220;-33
2022/06/19 01:42:56;;;;;;;4.18;1.55;;;21.90;93.00;;;;;;5029661;28;20235;-33
2022/06/19 01:45:24;;;;;;;7.97;1.88;;;21.80;92.50;;;;;;5029691;28;20216;-33
2022/06/19 01:47:53;;;;;;;4.80;1.85;;;21.60;92.70;;;;;;5027960;28;20314;-34
2022/06/19 01:50:28;;;;;;;9.95;1.80;;;21.50;92.50;;;;;;5031266;28;20217;-33
2022/06/19 01:53:39;;;;;;;10.57;1.98;;;21.30;92.60;;;;;;5010933;28;20398;-34
2022/06/19 01:56:11;;;;;;;6.95;1.77;;;21.10;92.90;;;;;;5028344;28;20213;-34
2022/06/19 01:58:46;;;;;;;8.25;2.53;;;21.10;92.00;;;;;;5028661;28;20239;-33
2022/06/19 02:01:18;;;;;;;8.18;1.58;;;21.00;92.40;;;;;;5049662;28;20609;-34
2022/06/19 02:03:55;;;;;;;10.10;1.83;;;20.90;92.10;;;;;;5042025;28;20201;-33
2022/06/19 02:06:30;;;;;;;5.45;1.30;;;20.70;92.20;;;;;;5030258;28;20619;-33
2022/06/19 02:09:00;;;;;;;6.53;1.70;;;20.60;92.10;;;;;;5029769;28;20538;-34
2022/06/19 02:11:34;;;;;;;5.47;1.52;;;20.50;91.80;;;;;;5024231;28;20280;-34
2022/06/19 02:14:04;;;;;;;4.35;1.10;;;20.40;91.70;;;;;;5024927;28;20196;-33
2022/06/19 02:16:42;;;;;;;6.45;1.10;;;20.40;91.30;;;;;;5028960;28;20302;-33
2022/06/19 02:19:10;;;;;;;8.68;1.25;;;20.20;91.00;;;;;;5030310;28;20663;-34
2022/06/19 02:21:37;;;;;;;5.55;1.58;;;20.10;90.60;;;;;;5030235;28;20266;-33
2022/06/19 02:24:07;;;;;;;3.63;1.27;;;20.10;90.40;;;;;;5030040;28;20205;-33
2022/06/19 02:26:36;;;;;;;10.60;1.45;;;19.90;90.00;;;;;;5029956;28;20777;-33
2022/06/19 02:29:09;;;;;;;8.77;1.92;;;19.70;89.50;;;;;;5028637;28;20575;-34
2022/06/19 02:31:41;;;;;;;5.78;1.27;;;19.50;89.00;;;;;;5029935;28;20622;-34
2022/06/19 02:34:19;;;;;;;7.88;1.25;;;19.20;88.20;;;;;;5028614;28;20295;-34
2022/06/19 02:37:09;;;;;;;7.50;1.42;;;19.20;88.30;;;;;;5014691;28;20562;-33
2022/06/19 02:40:05;;;;;;;8.40;1.20;;;19.10;88.10;;;;;;5022729;28;20479;-33
2022/06/19 02:42:40;;;;;;;4.32;1.15;;;19.10;88.10;;;;;;5036474;28;20244;-33
2022/06/19 02:45:15;;;;;;;4.65;1.30;;;19.10;88.00;;;;;;5029861;28;20224;-33
2022/06/19 02:47:46;;;;;;;6.90;1.10;;;19.00;87.70;;;;;;5029409;28;20220;-33
2022/06/19 02:50:25;;;;;;;6.55;1.38;;;19.00;87.90;;;;;;5030694;28;20749;-33
2022/06/19 02:52:56;;;;;;;8.55;1.30;;;19.00;87.90;;;;;;5029408;28;20208;-33
2022/06/19 02:55:23;;;;;;;5.47;1.20;;;19.00;88.20;;;;;;5029808;28;20545;-33
2022/06/19 02:57:52;;;;;;;6.07;1.30;;;18.90;88.10;;;;;;5029743;28;20236;-33
2022/06/19 03:00:26;;;;;;;5.68;1.40;;;18.90;88.10;;;;;;5044099;28;20222;-33
2022/06/19 03:02:59;;;;;;;5.25;1.00;;;18.90;88.00;;;;;;5038920;28;20215;-36
2022/06/19 03:05:31;;;;;;;8.20;1.70;;;18.90;88.10;;;;;;5014176;28;20201;-37
2022/06/19 03:07:58;;;;;;;11.15;1.30;;;18.90;88.30;;;;;;5029214;28;20773;-37
2022/06/19 03:10:27;;;;;;;9.48;2.42;;;18.80;88.00;;;;;;5029440;28;20205;-37
2022/06/19 03:12:59;;;;;;;4.78;1.17;;;18.90;87.90;;;;;;5027090;28;20307;-36
2022/06/19 03:15:27;;;;;;;8.50;1.40;;;18.80;88.20;;;;;;5028744;28;20628;-36
2022/06/19 03:17:54;;;;;;;5.03;1.10;;;18.80;87.70;;;;;;5029265;28;20220;-37
2022/06/19 03:20:26;;;;;;;5.30;1.17;;;18.80;87.60;;;;;;5029737;28;20217;-36
2022/06/19 03:22:56;;;;;;;3.88;1.10;;;18.80;87.50;;;;;;5029497;28;20221;-37
2022/06/19 03:25:23;;;;;;;4.20;0.95;;;18.80;87.40;;;;;;5029502;28;20201;-37
2022/06/19 03:27:51;;;;;;;4.97;1.00;;;18.80;87.20;;;;;;5029085;28;20607;-37
2022/06/19 03:30:21;;;;;;;4.55;0.90;;;18.80;87.30;;;;;;5026655;28;20255;-36
2022/06/19 03:32:51;;;;;;;6.65;1.50;;;18.80;87.10;;;;;;5025459;28;20200;-36
2022/06/19 03:35:18;;;;;;;3.95;1.10;;;18.80;87.40;;;;;;5027911;28;20225;-36
2022/06/19 03:37:48;;;;;;;3.45;0.90;;;18.70;87.20;;;;;;5028318;28;20711;-36
2022/06/19 03:40:18;;;;;;;7.10;1.17;;;18.70;87.20;;;;;;5029421;28;20197;-36
2022/06/19 03:42:45;;;;;;;4.10;0.88;;;18.70;87.50;;;;;;5028510;28;20742;-36
2022/06/19 03:45:17;;;;;;;5.03;1.05;;;18.70;87.30;;;;;;5060578;28;20200;-36
2022/06/19 03:47:46;;;;;;;4.82;1.17;;;18.70;87.30;;;;;;5027688;28;20691;-37
2022/06/19 03:50:16;;;;;;;3.72;0.90;;;18.80;87.40;;;;;;5026280;28;20201;-36
2022/06/19 03:52:47;;;;;;;4.88;0.82;;;18.80;87.10;;;;;;5027590;28;20203;-36
2022/06/19 03:55:14;;;;;;;5.93;0.90;;;18.80;87.30;;;;;;5027980;28;20233;-37
2022/06/19 03:57:44;;;;;;;5.43;0.70;;;18.80;87.30;;;;;;5028522;28;20602;-36
2022/06/19 04:00:15;;;;;;;3.10;0.85;;;18.90;87.30;;;;;;5042772;28;20291;-36
2022/06/19 04:02:47;;;;;;;5.57;1.00;;;18.90;87.40;;;;;;5047531;28;20598;-37
2022/06/19 04:05:14;;;;;;;5.78;0.98;;;19.00;87.60;;;;;;5046938;28;20718;-37
2022/06/19 04:07:49;;;;;;;4.35;1.10;;;19.00;87.50;;;;;;5036089;28;20314;-36
2022/06/19 04:10:21;;;;;;;5.60;1.17;;;19.00;87.50;;;;;;5028195;28;20599;-37
2022/06/19 04:12:54;;;;;;;5.95;1.00;;;19.00;87.40;;;;;;5026753;28;20216;-37
2022/06/19 04:15:22;;;;;;;5.57;1.10;;;19.00;87.50;;;;;;5026913;28;20192;-36
2022/06/19 04:17:50;;;;;;;3.50;0.90;;;19.10;87.40;;;;;;5026155;28;20726;-36
2022/06/19 04:20:19;;;;;;;4.35;0.80;;;19.10;87.40;;;;;;5027940;28;20229;-36
2022/06/19 04:22:49;;;;;;;3.72;0.85;;;19.10;87.40;;;;;;5027075;28;20236;-37
2022/06/19 04:25:17;;;;;;;4.97;1.00;;;19.20;87.30;;;;;;5028207;28;20228;-37
2022/06/19 04:27:44;;;;;;;4.18;1.02;;;19.20;87.30;;;;;;5026644;28;20634;-37
2022/06/19 04:30:14;;;;;;;3.22;0.95;;;19.30;87.40;;;;;;5028557;28;20706;-37
2022/06/19 04:32:45;;;;;;;3.05;0.90;;;19.30;87.50;;;;;;5027941;28;20712;-37
2022/06/19 04:35:14;;;;;;;4.72;0.80;;;19.40;87.60;;;;;;5028787;28;20197;-37
2022/06/19 04:37:47;;;;;;;5.95;1.00;;;19.50;87.50;;;;;;5028233;28;20213;-37
2022/06/19 04:40:16;;;;;;;4.72;0.60;;;19.60;87.50;;;;;;5058021;28;20204;-37
2022/06/19 04:42:46;;;;;;;4.32;0.80;;;19.60;87.40;;;;;;5026663;28;20212;-37
2022/06/19 04:45:13;;;;;;;8.88;1.10;;;19.70;87.40;;;;;;5028411;28;20230;-37
2022/06/19 04:47:41;;;;;;;4.47;0.82;;;19.80;87.30;;;;;;5028115;28;20355;-37
2022/06/19 04:50:10;;;;;;;1.88;0.80;;;19.80;86.70;;;;;;5027475;28;20196;-37
2022/06/19 04:52:37;;;;;;;2.10;0.63;;;19.80;86.90;;;;;;5026276;28;20205;-37
2022/06/19 04:55:05;;;;;;;3.22;0.80;;;19.90;86.90;;;;;;5028378;28;20241;-37
2022/06/19 04:57:32;;;;;;;3.50;0.93;;;19.90;86.90;;;;;;5027647;28;20598;-36
2022/06/19 05:00:01;;;;;;;5.57;0.88;;;19.90;86.60;;;;;;5029880;28;20311;-36
2022/06/19 05:02:31;;;;;;;3.30;0.88;;;19.90;85.90;;;;;;5029319;28;20201;-37
2022/06/19 05:04:59;;;;;;;4.43;0.80;;;20.00;86.40;;;;;;5031548;28;20220;-36
2022/06/19 05:07:26;;;;;;;3.42;0.93;;;20.00;86.30;;;;;;5018463;28;20983;-36
2022/06/19 05:09:53;;;;;;;1.25;0.60;;;20.00;86.20;;;;;;5030649;28;20251;-36
2022/06/19 05:12:23;;;;;;;3.40;0.80;;;19.90;86.00;;;;;;5031780;28;20205;-36
2022/06/19 05:14:56;;;;;;;4.63;1.13;;;20.00;86.00;;;;;;5030317;28;20296;-36
2022/06/19 05:17:23;;;;;;;3.40;0.80;;;20.00;86.00;;;;;;5029801;28;20308;-37
2022/06/19 05:19:50;;;;;;;3.22;0.80;;;20.00;86.00;;;;;;5031279;28;20205;-37
2022/06/19 05:22:18;;;;;;;3.38;0.90;;;20.00;86.00;;;;;;5029776;28;20229;-37
2022/06/19 05:24:47;;;;;;;3.33;0.80;;;20.00;86.10;;;;;;5063182;28;20663;-37
2022/06/19 05:27:19;;;;;;;4.40;0.98;;;20.10;86.10;;;;;;5031432;28;20310;-37
2022/06/19 05:29:47;;;;;;;2.70;0.80;;;20.10;85.50;;;;;;5026253;28;20673;-36
2022/06/19 05:32:17;;;;;;;4.07;0.90;;;20.00;85.30;;;;;;5029738;28;20274;-37
2022/06/19 05:34:45;;;;;;;2.35;0.85;;;20.10;85.50;;;;;;5031432;28;20205;-36
2022/06/19 05:37:14;;;;;;;3.65;0.90;;;20.10;85.50;;;;;;5024656;28;20201;-37
2022/06/19 05:39:45;;;;;;;3.05;0.70;;;20.10;86.30;;;;;;5019093;28;20270;-37
2022/06/19 05:42:20;;;;;;;4.53;1.15;;;20.20;85.80;;;;;;5022422;28;20299;-36
2022/06/19 05:44:47;;;;;;;4.55;1.20;;;20.20;85.80;;;;;;5029034;28;20433;-36
2022/06/19 05:47:17;;;;;;;3.95;0.88;;;20.20;85.80;;;;;;5026532;28;21053;-36
2022/06/19 05:49:47;;;;;;;3.00;1.08;;;20.30;85.80;;;;;;5028653;28;20294;-36
2022/06/19 05:52:24;;;;;;;6.10;0.88;;;20.30;85.70;;;;;;5027169;28;20288;-37
2022/06/19 05:54:55;;;;;;;3.60;0.80;;;20.40;85.60;;;;;;5030148;28;20316;-36
2022/06/19 05:57:22;;;;;;;2.55;0.68;;;20.40;85.60;;;;;;5026204;28;20587;-37
2022/06/19 05:59:54;;;;;;;3.40;0.90;;;20.40;85.50;;;;;;5023798;28;20227;-36
2022/06/19 06:02:23;;;;;;;3.10;0.77;;;20.40;85.10;;;;;;5024061;28;20239;-36
2022/06/19 06:04:50;;;;;;;2.35;0.80;;;20.50;85.20;;;;;;5025188;28;20212;-36
2022/06/19 06:07:20;;;;;;;4.85;1.25;;;20.50;85.10;;;;;;5024950;28;20232;-37
2022/06/19 06:09:47;;;;;;;3.17;0.68;;;20.50;85.20;;;;;;5030037;28;20233;-36
2022/06/19 06:12:19;;;;;;;2.85;0.77;;;20.40;85.10;;;;;;5032486;28;20259;-36
2022/06/19 06:14:46;;;;;;;2.80;0.70;;;20.50;85.40;;;;;;5025181;28;20227;-36
2022/06/19 06:17:21;;;;;;;4.80;0.80;;;20.50;85.50;;;;;;5025979;28;20328;-37
2022/06/19 06:19:51;;;;;;;2.17;0.75;;;20.50;85.60;;;;;;5026358;28;20200;-36
2022/06/19 06:22:19;;;;;;;6.15;1.10;;;20.50;85.60;;;;;;5027615;28;20204;-37
2022/06/19 06:24:46;;;;;;;3.20;0.70;;;20.50;85.70;;;;;;5028062;28;20204;-36
2022/06/19 06:27:13;;;;;;;3.13;0.88;;;20.50;85.60;;;;;;5028093;28;20227;-37
2022/06/19 06:29:42;;;;;;;1.83;0.55;;;20.50;85.40;;;;;;5027698;28;20291;-36
2022/06/19 06:32:10;;;;;;;3.80;0.82;;;20.50;85.50;;;;;;5027922;28;20243;-37
2022/06/19 06:34:37;;;;;;;4.68;0.73;;;20.40;85.10;;;;;;5023300;28;20197;-36
2022/06/19 06:37:08;;;;;;;3.20;1.00;;;20.40;85.10;;;;;;5023431;28;20200;-36
2022/06/19 06:39:35;;;;;;;2.63;0.77;;;20.30;85.00;;;;;;5019350;28;20204;-36
2022/06/19 06:42:07;;;;;;;3.67;1.00;;;20.10;84.50;;;;;;5029073;28;20710;-37
2022/06/19 06:44:38;;;;;;;4.43;0.80;;;20.00;84.40;;;;;;5026320;28;20210;-37
2022/06/19 06:47:05;;;;;;;4.43;1.00;;;19.90;84.30;;;;;;5025822;28;20201;-36
2022/06/19 06:49:37;;;;;;;4.35;0.90;;;19.70;84.20;;;;;;5026908;28;20621;-36
2022/06/19 06:52:08;;;;;;;4.40;0.90;;;19.70;84.30;;;;;;5016103;28;20219;-36
2022/06/19 06:54:37;;;;;;;3.35;0.70;;;19.50;84.20;;;;;;5027357;28;20295;-36
2022/06/19 06:57:10;;;;;;;2.67;0.40;;;19.50;84.00;;;;;;5018402;28;20268;-36
2022/06/19 06:59:37;;;;;;;2.08;0.60;;;19.40;83.90;;;;;;5021372;28;20199;-36
2022/06/19 07:02:08;;;;;;;2.10;0.68;;;19.40;83.90;;;;;;5025182;28;20225;-37
2022/06/19 07:04:39;;;;;;;22.20;4.50;;;19.40;84.00;;;;;;5023334;28;20197;-36
2022/06/19 07:07:09;;;;;;;23.17;2.72;;;19.40;85.20;;;;;;5027805;28;20197;-37
2022/06/19 07:09:36;;;;;;;7.72;1.50;;;19.30;86.10;;;;;;5027297;28;20229;-37
2022/06/19 07:12:04;;;;;;;6.00;1.65;;;19.30;86.30;;;;;;5023194;28;20247;-37
2022/06/19 07:14:33;;;;;;;3.83;1.17;;;19.40;87.30;;;;;;5023541;28;20612;-37
2022/06/19 07:17:05;;;;;;;2.10;0.93;;;19.30;88.60;;;;;;5025561;28;20588;-36
2022/06/19 07:19:33;;;;;;;4.22;0.95;;;19.30;89.20;;;;;;5031465;28;20588;-36
2022/06/19 07:22:00;;;;;;;7.45;1.10;;;19.20;89.10;;;;;;5025755;28;20201;-36
2022/06/19 07:24:27;;;;;;;4.57;1.20;;;19.20;89.20;;;;;;5031600;28;20214;-37
2022/06/19 07:26:54;;;;;;;7.13;1.13;;;19.20;89.10;;;;;;5025452;28;20294;-36
2022/06/19 07:29:22;;;;;;;6.22;1.20;;;19.10;88.80;;;;;;5026819;28;20476;-38
2022/06/19 07:31:49;;;;;;;5.25;1.20;;;19.00;89.80;;;;;;5024920;28;20205;-37
2022/06/19 07:34:19;;;;;;;4.00;0.90;;;19.00;90.40;;;;;;5024888;28;20240;-37
2022/06/19 07:36:56;;;;;;;5.50;1.40;;;18.90;90.50;;;;;;5026046;28;20573;-37
2022/06/19 07:39:23;;;;;;;6.30;1.08;;;18.70;91.00;;;;;;5025201;28;20247;-37
2022/06/19 07:41:52;;;;;;;3.78;1.10;;;18.60;90.40;;;;;;5027975;28;20255;-38
2022/06/19 07:44:20;;;;;;;5.57;1.40;;;18.50;90.20;;;;;;5018830;28;20292;-38
2022/06/19 07:52:24;;;;;;;5.68;1.42;;;18.20;90.60;;;;;;5024462;28;20542;-39
2022/06/19 07:54:51;;;;;;;5.05;1.00;;;18.00;90.30;;;;;;5035970;28;20212;-39
2022/06/19 07:57:19;;;;;;;4.57;1.00;;;17.90;90.80;;;;;;5027871;28;20323;-39
2022/06/19 07:59:47;;;;;;;5.80;1.63;;;17.80;90.60;;;;;;5026487;28;20266;-39
2022/06/19 08:02:14;;;;;;;4.18;1.00;;;17.70;90.50;;;;;;5025132;28;20199;-39
2022/06/19 08:04:44;;;;;;;4.32;1.00;;;17.70;90.40;;;;;;5024400;28;20259;-39
2022/06/19 08:07:13;;;;;;;3.35;0.90;;;17.60;90.50;;;;;;5023934;28;20562;-39
2022/06/19 08:09:43;;;;;;;2.97;1.08;;;17.60;90.30;;;;;;5025424;28;20676;-40
2022/06/19 08:12:15;;;;;;;4.47;1.00;;;17.60;90.60;;;;;;5024007;28;20190;-40
2022/06/19 08:14:42;;;;;;;3.95;0.90;;;17.70;90.70;;;;;;5055823;28;20592;-40
2022/06/19 08:17:15;;;;;;;3.90;0.82;;;17.70;90.80;;;;;;5026848;28;20675;-40
2022/06/19 08:19:45;;;;;;;5.00;0.95;;;17.80;90.80;;;;;;5004676;28;20237;-39
2022/06/19 08:22:15;;;;;;;3.67;0.90;;;17.90;90.90;;;;;;5016382;28;20216;-40
2022/06/19 08:24:47;;;;;;;4.50;1.00;;;17.90;91.00;;;;;;5022633;28;20224;-40
2022/06/19 08:27:16;;;;;;;6.80;1.38;;;17.90;90.50;;;;;;5012965;28;20582;-39
2022/06/19 08:29:44;;;;;;;2.38;1.10;;;17.90;90.70;;;;;;5025580;28;20711;-40
2022/06/19 08:32:11;;;;;;;6.05;1.15;;;18.00;90.80;;;;;;5025658;28;20300;-40
2022/06/19 08:34:39;;;;;;;6.38;0.93;;;18.10;91.00;;;;;;5020521;28;20721;-40
2022/06/19 08:37:09;;;;;;;3.53;1.02;;;18.20;90.80;;;;;;5029153;28;20304;-40
2022/06/19 08:39:41;;;;;;;3.75;0.85;;;18.20;90.80;;;;;;5024468;28;20244;-39
2022/06/19 08:42:41;;;;;;;3.38;0.73;;;18.20;91.10;;;;;;5058180;28;20311;-39
2022/06/19 08:45:22;;;;;;;7.13;1.13;;;18.30;91.20;;;;;;5028272;28;20274;-39
2022/06/19 08:48:24;;;;;;;8.20;1.13;;;18.20;91.70;;;;;;5062328;28;20766;-39
2022/06/19 08:51:04;;;;;;;5.25;1.08;;;18.20;92.10;;;;;;5024879;28;20244;-40
2022/06/19 08:54:01;;;;;;;8.25;1.40;;;18.00;92.20;;;;;;5024133;28;20682;-40
2022/06/19 08:56:43;;;;;;;3.58;0.90;;;17.90;92.40;;;;;;5028242;28;20618;-39
2022/06/19 08:59:41;;;;;;;6.10;1.10;;;17.80;92.20;;;;;;5027177;28;20213;-39
2022/06/19 09:02:27;;;;;;;3.13;0.82;;;17.80;92.80;;;;;;5019747;28;20771;-39
2022/06/19 09:05:39;;;;;;;7.80;1.48;;;17.70;92.70;;;;;;5026786;28;20229;-39
2022/06/19 09:08:43;;;;;;;5.60;1.48;;;17.80;93.10;;;;;;5027574;28;20702;-40
2022/06/19 09:11:22;;;;;;;3.10;1.33;;;17.80;93.80;;;;;;5024649;28;20271;-39
2022/06/19 09:14:30;;;;;;;4.53;1.77;;;17.80;92.30;;;;;;5029355;28;20630;-40
2022/06/19 09:17:32;;;;;;;8.00;1.80;;;18.00;92.70;;;;;;5026623;28;20746;-33
2022/06/19 09:20:12;;;;;;;5.10;1.85;;;18.00;92.70;;;;;;5025335;28;20211;-32
2022/06/19 09:23:12;;;;;;;3.83;2.25;;;18.10;92.60;;;;;;5027879;28;20824;-33
2022/06/19 09:26:08;;;;;;;7.70;2.63;;;18.10;93.80;;;;;;5020390;28;20212;-33
2022/06/19 09:29:13;;;;;;;8.10;2.30;;;18.20;93.80;;;;;;5027060;28;20236;-33
2022/06/19 09:32:01;;;;;;;6.07;2.85;;;18.20;93.20;;;;;;5025451;28;20283;-33
2022/06/19 09:34:58;;;;;;;9.35;3.03;;;18.30;93.50;;;;;;5026914;28;20216;-33
2022/06/19 09:37:38;;;;;;;10.68;3.60;;;18.30;94.20;;;;;;5033225;28;20268;-33
2022/06/19 09:40:16;;;;;;;11.85;3.85;;;18.30;94.00;;;;;;5021323;28;20201;-33
2022/06/19 09:43:08;;;;;;;11.05;3.35;;;18.30;93.90;;;;;;5027388;28;20323;-33
2022/06/19 09:45:51;;;;;;;8.65;2.67;;;18.30;93.50;;;;;;5030543;28;20197;-33
2022/06/19 09:48:37;;;;;;;8.20;3.53;;;18.40;93.20;;;;;;5026390;28;20276;-32
2022/06/19 09:51:19;;;;;;;6.88;2.72;;;18.40;93.70;;;;;;5026909;28;20209;-33
2022/06/19 09:53:49;;;;;;;9.00;3.05;;;18.40;93.80;;;;;;5023504;28;20209;-40
2022/06/19 09:56:46;;;;;;;5.47;2.85;;;18.40;93.30;;;;;;5024612;28;20201;-40
2022/06/19 09:59:47;;;;;;;8.23;2.95;;;18.50;93.40;;;;;;5027617;28;20288;-40
2022/06/19 10:02:24;;;;;;;15.38;3.13;;;18.60;93.20;;;;;;5027218;28;20220;-40
2022/06/19 10:05:01;;;;;;;7.00;3.00;;;18.60;93.60;;;;;;5027596;28;20212;-40
2022/06/19 10:07:37;;;;;;;6.53;3.28;;;18.60;93.60;;;;;;5026635;28;20206;-40
2022/06/19 10:10:11;;;;;;;6.40;3.30;;;18.70;93.80;;;;;;5027174;28;20233;-40
2022/06/19 10:12:48;;;;;;;9.25;3.42;;;18.70;93.50;;;;;;5024611;28;20299;-41
2022/06/19 10:15:31;;;;;;;8.20;3.72;;;18.70;93.40;;;;;;5025247;28;20201;-40
2022/06/19 10:18:14;;;;;;;7.78;3.38;;;18.70;93.60;;;;;;5019984;28;20320;-40
2022/06/19 10:20:56;;;;;;;6.65;3.50;;;18.80;93.70;;;;;;5020952;28;20327;-40
2022/06/19 10:23:42;;;;;;;8.18;3.20;;;18.80;93.30;;;;;;5023494;28;20197;-32
2022/06/19 10:26:13;;;;;;;5.95;3.03;;;18.80;94.00;;;;;;5027009;28;20294;-33
2022/06/19 10:28:55;;;;;;;6.20;2.95;;;18.80;93.90;;;;;;5026540;28;20577;-32
2022/06/19 10:31:55;;;;;;;6.20;3.40;;;18.90;93.80;;;;;;5031582;28;20203;-33
2022/06/19 10:34:57;;;;;;;4.93;2.97;;;18.90;93.80;;;;;;5026218;28;20193;-33
2022/06/19 10:37:39;;;;;;;3.20;2.90;;;19.00;93.70;;;;;;5017163;28;20232;-32
2022/06/19 10:40:21;;;;;;;6.90;3.33;;;19.10;93.70;;;;;;5022629;28;20212;-32
2022/06/19 10:43:07;;;;;;;6.40;2.90;;;19.10;93.50;;;;;;5032991;28;20206;-33
2022/06/19 10:45:49;;;;;;;9.48;2.72;;;19.20;93.60;;;;;;5027905;28;20197;-32
2022/06/19 10:48:38;;;;;;;5.28;2.78;;;19.30;94.10;;;;;;5022179;28;20308;-33
2022/06/19 10:51:24;;;;;;;6.47;2.60;;;19.40;93.80;;;;;;5018034;28;20292;-33
2022/06/19 10:53:57;;;;;;;8.15;2.72;;;19.40;93.80;;;;;;5024453;28;20252;-33
2022/06/19 10:56:48;;;;;;;5.97;2.65;;;19.50;93.70;;;;;;5024458;28;20213;-33
2022/06/19 10:59:16;;;;;;;8.98;2.90;;;19.50;93.60;;;;;;5025919;28;20580;-33
2022/06/19 11:05:02;;;;;;;6.28;2.90;;;19.50;93.90;;;;;;5026765;28;20205;-33
2022/06/19 11:07:31;;;;;;;5.55;2.28;;;19.50;93.70;;;;;;5026435;28;20204;-32
2022/06/19 11:10:24;;;;;;;8.20;2.78;;;19.60;93.60;;;;;;5025253;28;20221;-32
2022/06/19 11:13:00;;;;;;;5.93;2.40;;;19.60;93.60;;;;;;5021998;28;20224;-32
2022/06/19 11:15:35;;;;;;;9.07;3.00;;;19.70;93.60;;;;;;5029048;28;20586;-33
2022/06/19 11:18:22;;;;;;;5.57;2.03;;;19.70;93.90;;;;;;5026553;28;20228;-33
2022/06/19 11:21:11;;;;;;;6.85;2.83;;;19.80;94.00;;;;;;5024623;28;20232;-32
2022/06/19 11:23:52;;;;;;;8.43;2.63;;;19.80;94.00;;;;;;5019989;28;20200;-32
2022/06/19 11:26:45;;;;;;;5.25;2.60;;;19.80;93.80;;;;;;5026701;28;20279;-33
2022/06/19 11:29:15;;;;;;;4.88;2.15;;;19.90;93.90;;;;;;5027181;28;20600;-32
2022/06/19 11:32:19;;;;;;;7.50;2.38;;;19.90;93.70;;;;;;5023143;28;20644;-32
2022/06/19 11:35:03;;;;;;;7.18;2.50;;;20.10;94.30;;;;;;5016951;28;20207;-32
2022/06/19 11:37:51;;;;;;;6.57;2.30;;;20.20;94.10;;;;;;5012802;28;20200;-32
2022/06/19 11:40:28;;;;;;;5.43;2.30;;;20.30;94.10;;;;;;5025336;28;20212;-33
2022/06/19 11:42:59;;;;;;;5.55;2.40;;;20.40;94.00;;;;;;5021267;28;20204;-32
2022/06/19 11:45:37;;;;;;;6.40;2.45;;;20.50;94.10;;;;;;5024456;28;20225;-33
2022/06/19 11:48:14;;;;;;;5.72;2.60;;;20.50;94.20;;;;;;5023501;28;20216;-32
2022/06/19 11:50:50;;;;;;;5.43;2.42;;;20.60;94.50;;;;;;5026178;28;20237;-33
2022/06/19 11:53:20;;;;;;;4.47;1.98;;;20.60;94.20;;;;;;5018796;28;20197;-33
2022/06/19 11:55:49;;;;;;;8.00;2.47;;;20.70;94.10;;;;;;5023881;28;20251;-33
2022/06/19 11:58:20;;;;;;;7.90;2.25;;;20.70;94.30;;;;;;5025639;28;20605;-33
2022/06/19 12:01:07;;;;;;;9.07;2.28;;;20.70;94.20;;;;;;5025362;28;20201;-32
2022/06/19 12:04:01;;;;;;;5.72;2.20;;;20.70;94.20;;;;;;5021474;28;20271;-33
2022/06/19 12:06:49;;;;;;;6.57;2.65;;;20.70;94.00;;;;;;5025789;28;20221;-33
2022/06/19 12:09:42;;;;;;;7.43;2.33;;;20.70;94.20;;;;;;5013496;28;20216;-33
2022/06/19 12:12:16;;;;;;;5.93;2.38;;;20.70;94.30;;;;;;5020218;28;20201;-32
2022/06/19 12:14:49;;;;;;;6.85;2.70;;;20.70;94.20;;;;;;5028512;28;20204;-32
2022/06/19 12:17:18;;;;;;;7.40;2.53;;;20.70;94.20;;;;;;5022974;28;20268;-32
2022/06/19 12:19:49;;;;;;;10.13;3.13;;;20.70;94.30;;;;;;5025842;28;20205;-32
2022/06/19 12:22:22;;;;;;;4.47;2.15;;;20.80;94.50;;;;;;5039443;28;20228;-38
2022/06/19 12:25:27;;;;;;;5.45;2.53;;;20.80;94.50;;;;;;5020732;28;20225;-39
2022/06/19 12:28:12;;;;;;;4.88;2.30;;;21.00;94.80;;;;;;4998462;28;20251;-39
2022/06/19 12:30:58;;;;;;;6.32;2.35;;;21.10;94.90;;;;;;5013709;28;20224;-39
2022/06/19 12:33:40;;;;;;;4.43;2.63;;;21.20;94.90;;;;;;5023631;28;20299;-39
2022/06/19 12:36:15;;;;;;;4.82;2.22;;;21.30;94.90;;;;;;5022091;28;20302;-39
2022/06/19 12:38:48;;;;;;;6.45;2.83;;;21.50;95.30;;;;;;5025746;28;20215;-39
2022/06/19 12:41:34;;;;;;;5.15;2.53;;;21.50;94.90;;;;;;5021702;28;20342;-39
2022/06/19 12:44:16;;;;;;;5.15;2.40;;;21.60;95.00;;;;;;5023107;28;20212;-39
2022/06/19 12:47:09;;;;;;;5.70;2.20;;;21.60;95.10;;;;;;5025861;28;20691;-39
2022/06/19 12:49:46;;;;;;;3.60;1.85;;;21.60;94.80;;;;;;5025557;28;20282;-39
2022/06/19 12:52:37;;;;;;;6.68;2.30;;;21.70;95.10;;;;;;5025361;28;20211;-39
2022/06/19 12:55:13;;;;;;;3.63;1.80;;;21.70;94.90;;;;;;5025227;28;20201;-39
2022/06/19 12:58:12;;;;;;;4.25;2.20;;;21.70;94.90;;;;;;5022955;28;20251;-39
2022/06/19 13:00:50;;;;;;;4.57;1.70;;;21.80;95.00;;;;;;5025004;28;20204;-39
2022/06/19 13:03:50;;;;;;;5.32;2.28;;;21.80;95.20;;;;;;5023449;28;20197;-39
2022/06/19 13:06:57;;;;;;;5.30;1.95;;;21.90;95.10;;;;;;5016287;28;20201;-39
2022/06/19 13:09:32;;;;;;;4.65;1.80;;;22.00;95.20;;;;;;5010483;28;20538;-38
2022/06/19 13:12:24;;;;;;;4.55;1.67;;;22.10;95.10;;;;;;5023746;28;20211;-39
2022/06/19 13:15:17;;;;;;;6.63;1.63;;;22.10;95.10;;;;;;5023789;28;20197;-39
2022/06/19 13:17:55;;;;;;;3.33;1.60;;;22.20;95.20;;;;;;5022933;28;20225;-39
2022/06/19 13:20:39;;;;;;;5.03;1.83;;;22.20;95.20;;;;;;5026291;28;20209;-40
2022/06/19 13:23:26;;;;;;;3.92;1.52;;;22.20;95.10;;;;;;5023721;28;20205;-40
2022/06/19 13:27:10;;;;;;;5.22;1.88;;;22.30;95.10;;;;;;5023547;28;20220;-40
2022/06/19 13:29:29;;;;;;;6.28;1.75;;;22.30;95.00;;;;;;5029604;28;20224;-40
2022/06/19 13:32:15;;;;;;;3.15;2.00;;;22.20;94.90;;;;;;5021844;28;20264;-40
2022/06/19 13:34:57;;;;;;;5.95;1.70;;;22.20;95.10;;;;;;5024796;28;20694;-40
2022/06/19 13:37:48;;;;;;;5.90;1.70;;;22.30;95.00;;;;;;5022478;28;20203;-40
2022/06/19 13:40:31;;;;;;;6.32;2.08;;;22.30;95.00;;;;;;5025527;28;20262;-39
2022/06/19 13:43:25;;;;;;;6.57;1.70;;;22.50;95.10;;;;;;5027220;28;20235;-39